sensor_id;sensor_type;location;lat;lon;timestamp;P1;durP1;ratioP1;P2;durP2;ratioP2
11496;SDS011;5805;51.542;7.230;2022-12-07T00:01:31;11.43;;;9.65;;
11496;SDS011;5805;51.542;7.230;2022-12-07T00:03:59;10.73;;;9.07;;
11496;SDS011;5805;51.542;7.230;2022-12-07T00:06:26;12.18;;;9.25;;
11496;SDS011;5805;51.542;7.230;2022-12-07T00:08:52;10.98;;;8.73;;
11496;SDS011;5805;51.542;7.230;2022-12-07T00:11:19;10.52;;;8.73;;
11496;SDS011;5805;51.542;7.230;2022-12-07T00:13:47;12.15;;;9.25;;
11496;SDS011;5805;51.542;7.230;2022-12-07T00:16:16;10.95;;;9.27;;
11496;SDS011;5805;51.542;7.230;2022-12-07T00:18:44;12.77;;;9.85;;
11496;SDS011;5805;51.542;7.230;2022-12-07T00:21:10;13.15;;;9.30;;
11496;SDS011;5805;51.542;7.230;2022-12-07T00:23:38;13.02;;;9.50;;
11496;SDS011;5805;51.542;7.230;2022-12-07T00:26:05;12.75;;;10.02;;
11496;SDS011;5805;51.542;7.230;2022-12-07T00:28:33;14.40;;;9.20;;
11496;SDS011;5805;51.542;7.230;2022-12-07T00:30:59;11.88;;;9.18;;
11496;SDS011;5805;51.542;7.230;2022-12-07T00:33:26;11.20;;;9.05;;
11496;SDS011;5805;51.542;7.230;2022-12-07T00:35:54;12.30;;;9.30;;
11496;SDS011;5805;51.542;7.230;2022-12-07T00:38:21;10.88;;;9.50;;
11496;SDS011;5805;51.542;7.230;2022-12-07T00:40:53;10.20;;;9.18;;
11496;SDS011;5805;51.542;7.230;2022-12-07T00:43:19;13.65;;;8.48;;
11496;SDS011;5805;51.542;7.230;2022-12-07T00:45:46;10.57;;;8.02;;
11496;SDS011;5805;51.542;7.230;2022-12-07T00:48:12;12.10;;;8.40;;
11496;SDS011;5805;51.542;7.230;2022-12-07T00:50:37;10.98;;;8.50;;
11496;SDS011;5805;51.542;7.230;2022-12-07T00:53:03;9.57;;;8.15;;
11496;SDS011;5805;51.542;7.230;2022-12-07T00:55:32;10.40;;;8.90;;
11496;SDS011;5805;51.542;7.230;2022-12-07T00:57:57;12.32;;;9.50;;
11496;SDS011;5805;51.542;7.230;2022-12-07T01:00:23;14.43;;;9.55;;
11496;SDS011;5805;51.542;7.230;2022-12-07T01:02:50;12.00;;;9.60;;
11496;SDS011;5805;51.542;7.230;2022-12-07T01:05:16;12.60;;;9.48;;
11496;SDS011;5805;51.542;7.230;2022-12-07T01:07:42;12.00;;;10.15;;
11496;SDS011;5805;51.542;7.230;2022-12-07T01:10:08;12.23;;;10.00;;
11496;SDS011;5805;51.542;7.230;2022-12-07T01:12:34;11.90;;;10.10;;
11496;SDS011;5805;51.542;7.230;2022-12-07T01:15:00;11.07;;;9.30;;
11496;SDS011;5805;51.542;7.230;2022-12-07T01:17:25;11.95;;;9.63;;
11496;SDS011;5805;51.542;7.230;2022-12-07T01:19:54;12.23;;;9.57;;
11496;SDS011;5805;51.542;7.230;2022-12-07T01:22:19;11.45;;;9.73;;
11496;SDS011;5805;51.542;7.230;2022-12-07T01:24:45;11.77;;;10.45;;
11496;SDS011;5805;51.542;7.230;2022-12-07T01:27:11;14.88;;;10.93;;
11496;SDS011;5805;51.542;7.230;2022-12-07T01:29:36;12.80;;;10.85;;
11496;SDS011;5805;51.542;7.230;2022-12-07T01:32:03;17.90;;;10.32;;
11496;SDS011;5805;51.542;7.230;2022-12-07T01:34:29;15.82;;;10.98;;
11496;SDS011;5805;51.542;7.230;2022-12-07T01:36:56;13.00;;;10.48;;
11496;SDS011;5805;51.542;7.230;2022-12-07T01:39:21;12.32;;;10.88;;
11496;SDS011;5805;51.542;7.230;2022-12-07T01:41:47;16.83;;;11.63;;
11496;SDS011;5805;51.542;7.230;2022-12-07T01:44:14;12.43;;;11.10;;
11496;SDS011;5805;51.542;7.230;2022-12-07T01:46:45;13.95;;;11.02;;
11496;SDS011;5805;51.542;7.230;2022-12-07T01:49:14;12.98;;;11.40;;
11496;SDS011;5805;51.542;7.230;2022-12-07T01:51:43;12.98;;;11.30;;
11496;SDS011;5805;51.542;7.230;2022-12-07T01:54:13;13.15;;;11.30;;
11496;SDS011;5805;51.542;7.230;2022-12-07T01:56:41;15.73;;;11.43;;
11496;SDS011;5805;51.542;7.230;2022-12-07T01:59:12;13.20;;;11.30;;
11496;SDS011;5805;51.542;7.230;2022-12-07T02:01:39;13.05;;;11.50;;
11496;SDS011;5805;51.542;7.230;2022-12-07T02:04:05;14.32;;;11.48;;
11496;SDS011;5805;51.542;7.230;2022-12-07T02:06:31;15.30;;;11.45;;
11496;SDS011;5805;51.542;7.230;2022-12-07T02:08:57;13.85;;;11.27;;
11496;SDS011;5805;51.542;7.230;2022-12-07T02:11:24;15.77;;;12.18;;
11496;SDS011;5805;51.542;7.230;2022-12-07T02:13:50;13.82;;;11.75;;
11496;SDS011;5805;51.542;7.230;2022-12-07T02:16:20;17.67;;;11.68;;
11496;SDS011;5805;51.542;7.230;2022-12-07T02:18:55;14.65;;;12.27;;
11496;SDS011;5805;51.542;7.230;2022-12-07T02:21:36;16.67;;;11.18;;
11496;SDS011;5805;51.542;7.230;2022-12-07T02:24:25;13.48;;;10.45;;
11496;SDS011;5805;51.542;7.230;2022-12-07T02:27:06;14.63;;;12.13;;
11496;SDS011;5805;51.542;7.230;2022-12-07T02:29:56;14.35;;;11.68;;
11496;SDS011;5805;51.542;7.230;2022-12-07T02:32:26;13.32;;;11.40;;
11496;SDS011;5805;51.542;7.230;2022-12-07T02:34:58;15.63;;;11.98;;
11496;SDS011;5805;51.542;7.230;2022-12-07T02:37:33;14.05;;;12.05;;
11496;SDS011;5805;51.542;7.230;2022-12-07T02:40:05;16.13;;;11.77;;
11496;SDS011;5805;51.542;7.230;2022-12-07T02:42:36;12.38;;;11.13;;
11496;SDS011;5805;51.542;7.230;2022-12-07T02:45:07;11.63;;;10.43;;
11496;SDS011;5805;51.542;7.230;2022-12-07T02:47:35;14.95;;;11.38;;
11496;SDS011;5805;51.542;7.230;2022-12-07T02:50:02;16.67;;;11.57;;
11496;SDS011;5805;51.542;7.230;2022-12-07T02:52:29;13.25;;;11.77;;
11496;SDS011;5805;51.542;7.230;2022-12-07T02:54:55;13.30;;;10.82;;
11496;SDS011;5805;51.542;7.230;2022-12-07T02:57:27;13.55;;;10.73;;
11496;SDS011;5805;51.542;7.230;2022-12-07T03:00:04;13.77;;;11.02;;
11496;SDS011;5805;51.542;7.230;2022-12-07T03:02:36;15.60;;;11.60;;
11496;SDS011;5805;51.542;7.230;2022-12-07T03:05:16;11.88;;;10.10;;
11496;SDS011;5805;51.542;7.230;2022-12-07T03:07:54;12.15;;;10.75;;
11496;SDS011;5805;51.542;7.230;2022-12-07T03:10:27;12.57;;;10.57;;
11496;SDS011;5805;51.542;7.230;2022-12-07T03:12:58;13.93;;;10.40;;
11496;SDS011;5805;51.542;7.230;2022-12-07T03:15:31;16.00;;;10.07;;
11496;SDS011;5805;51.542;7.230;2022-12-07T03:18:00;11.05;;;9.70;;
11496;SDS011;5805;51.542;7.230;2022-12-07T03:20:29;13.13;;;9.88;;
11496;SDS011;5805;51.542;7.230;2022-12-07T03:22:57;12.60;;;10.52;;
11496;SDS011;5805;51.542;7.230;2022-12-07T03:25:24;11.80;;;9.90;;
11496;SDS011;5805;51.542;7.230;2022-12-07T03:27:53;13.73;;;9.80;;
11496;SDS011;5805;51.542;7.230;2022-12-07T03:30:22;14.70;;;11.20;;
11496;SDS011;5805;51.542;7.230;2022-12-07T03:32:54;11.35;;;10.18;;
11496;SDS011;5805;51.542;7.230;2022-12-07T03:35:25;15.02;;;10.93;;
11496;SDS011;5805;51.542;7.230;2022-12-07T03:37:54;12.40;;;10.27;;
11496;SDS011;5805;51.542;7.230;2022-12-07T03:40:25;11.70;;;10.05;;
11496;SDS011;5805;51.542;7.230;2022-12-07T03:42:55;13.68;;;10.55;;
11496;SDS011;5805;51.542;7.230;2022-12-07T03:45:23;14.15;;;10.60;;
11496;SDS011;5805;51.542;7.230;2022-12-07T03:47:59;12.95;;;10.70;;
11496;SDS011;5805;51.542;7.230;2022-12-07T03:50:32;13.82;;;11.07;;
11496;SDS011;5805;51.542;7.230;2022-12-07T03:53:04;13.13;;;10.35;;
11496;SDS011;5805;51.542;7.230;2022-12-07T03:55:35;14.57;;;11.30;;
11496;SDS011;5805;51.542;7.230;2022-12-07T03:58:05;13.70;;;10.88;;
11496;SDS011;5805;51.542;7.230;2022-12-07T04:00:34;15.20;;;11.23;;
11496;SDS011;5805;51.542;7.230;2022-12-07T04:03:01;13.55;;;10.65;;
11496;SDS011;5805;51.542;7.230;2022-12-07T04:05:27;12.43;;;11.05;;
11496;SDS011;5805;51.542;7.230;2022-12-07T04:07:53;14.65;;;10.77;;
11496;SDS011;5805;51.542;7.230;2022-12-07T04:10:19;12.25;;;10.95;;
11496;SDS011;5805;51.542;7.230;2022-12-07T04:12:45;17.92;;;10.45;;
11496;SDS011;5805;51.542;7.230;2022-12-07T04:15:11;13.95;;;11.27;;
11496;SDS011;5805;51.542;7.230;2022-12-07T04:17:37;12.43;;;10.45;;
11496;SDS011;5805;51.542;7.230;2022-12-07T04:20:04;12.00;;;9.88;;
11496;SDS011;5805;51.542;7.230;2022-12-07T04:22:31;14.32;;;9.98;;
11496;SDS011;5805;51.542;7.230;2022-12-07T04:24:57;12.40;;;9.77;;
11496;SDS011;5805;51.542;7.230;2022-12-07T04:27:22;14.88;;;9.82;;
11496;SDS011;5805;51.542;7.230;2022-12-07T04:29:48;15.35;;;10.40;;
11496;SDS011;5805;51.542;7.230;2022-12-07T04:32:14;12.02;;;9.50;;
11496;SDS011;5805;51.542;7.230;2022-12-07T04:34:39;14.98;;;10.43;;
11496;SDS011;5805;51.542;7.230;2022-12-07T04:37:06;12.25;;;10.32;;
11496;SDS011;5805;51.542;7.230;2022-12-07T04:39:32;11.43;;;9.88;;
11496;SDS011;5805;51.542;7.230;2022-12-07T04:41:59;13.13;;;9.57;;
11496;SDS011;5805;51.542;7.230;2022-12-07T04:44:26;13.57;;;9.85;;
11496;SDS011;5805;51.542;7.230;2022-12-07T04:46:53;12.88;;;9.60;;
11496;SDS011;5805;51.542;7.230;2022-12-07T04:49:19;11.07;;;9.80;;
11496;SDS011;5805;51.542;7.230;2022-12-07T04:51:45;12.00;;;9.05;;
11496;SDS011;5805;51.542;7.230;2022-12-07T04:54:13;9.77;;;8.65;;
11496;SDS011;5805;51.542;7.230;2022-12-07T04:56:39;13.75;;;8.93;;
11496;SDS011;5805;51.542;7.230;2022-12-07T04:59:06;11.15;;;8.93;;
11496;SDS011;5805;51.542;7.230;2022-12-07T05:01:32;14.05;;;9.30;;
11496;SDS011;5805;51.542;7.230;2022-12-07T05:03:58;9.98;;;8.25;;
11496;SDS011;5805;51.542;7.230;2022-12-07T05:06:24;13.70;;;8.80;;
11496;SDS011;5805;51.542;7.230;2022-12-07T05:08:49;10.55;;;8.80;;
11496;SDS011;5805;51.542;7.230;2022-12-07T05:11:17;12.50;;;8.55;;
11496;SDS011;5805;51.542;7.230;2022-12-07T05:13:43;12.20;;;8.32;;
11496;SDS011;5805;51.542;7.230;2022-12-07T05:16:08;10.45;;;8.35;;
11496;SDS011;5805;51.542;7.230;2022-12-07T05:18:34;12.52;;;8.80;;
11496;SDS011;5805;51.542;7.230;2022-12-07T05:21:00;9.82;;;8.48;;
11496;SDS011;5805;51.542;7.230;2022-12-07T05:23:25;13.55;;;8.00;;
11496;SDS011;5805;51.542;7.230;2022-12-07T05:25:51;12.10;;;8.65;;
11496;SDS011;5805;51.542;7.230;2022-12-07T05:28:18;13.27;;;8.25;;
11496;SDS011;5805;51.542;7.230;2022-12-07T05:30:43;9.98;;;8.55;;
11496;SDS011;5805;51.542;7.230;2022-12-07T05:33:09;11.65;;;8.88;;
11496;SDS011;5805;51.542;7.230;2022-12-07T05:35:35;10.85;;;7.75;;
11496;SDS011;5805;51.542;7.230;2022-12-07T05:38:00;12.73;;;8.88;;
11496;SDS011;5805;51.542;7.230;2022-12-07T05:40:26;11.52;;;8.35;;
11496;SDS011;5805;51.542;7.230;2022-12-07T05:42:52;13.18;;;7.97;;
11496;SDS011;5805;51.542;7.230;2022-12-07T05:45:19;13.73;;;8.38;;
11496;SDS011;5805;51.542;7.230;2022-12-07T05:47:44;9.15;;;8.13;;
11496;SDS011;5805;51.542;7.230;2022-12-07T05:50:10;11.05;;;8.32;;
11496;SDS011;5805;51.542;7.230;2022-12-07T05:52:36;12.45;;;8.15;;
11496;SDS011;5805;51.542;7.230;2022-12-07T05:55:01;11.27;;;8.15;;
11496;SDS011;5805;51.542;7.230;2022-12-07T05:57:27;10.80;;;8.60;;
11496;SDS011;5805;51.542;7.230;2022-12-07T05:59:53;10.60;;;8.07;;
11496;SDS011;5805;51.542;7.230;2022-12-07T06:02:20;14.00;;;8.70;;
11496;SDS011;5805;51.542;7.230;2022-12-07T06:04:46;11.82;;;8.30;;
11496;SDS011;5805;51.542;7.230;2022-12-07T06:07:12;13.82;;;8.27;;
11496;SDS011;5805;51.542;7.230;2022-12-07T06:09:39;10.35;;;7.95;;
11496;SDS011;5805;51.542;7.230;2022-12-07T06:12:05;10.02;;;8.00;;
11496;SDS011;5805;51.542;7.230;2022-12-07T06:14:32;10.70;;;7.90;;
11496;SDS011;5805;51.542;7.230;2022-12-07T06:16:57;9.73;;;8.07;;
11496;SDS011;5805;51.542;7.230;2022-12-07T06:19:24;10.80;;;8.30;;
11496;SDS011;5805;51.542;7.230;2022-12-07T06:21:50;13.57;;;8.60;;
11496;SDS011;5805;51.542;7.230;2022-12-07T06:24:16;9.77;;;7.40;;
11496;SDS011;5805;51.542;7.230;2022-12-07T06:26:42;11.20;;;8.32;;
11496;SDS011;5805;51.542;7.230;2022-12-07T06:29:08;11.57;;;8.27;;
11496;SDS011;5805;51.542;7.230;2022-12-07T06:31:34;9.18;;;7.68;;
11496;SDS011;5805;51.542;7.230;2022-12-07T06:34:01;12.50;;;7.75;;
11496;SDS011;5805;51.542;7.230;2022-12-07T06:36:30;11.35;;;8.55;;
11496;SDS011;5805;51.542;7.230;2022-12-07T06:38:56;12.68;;;7.85;;
11496;SDS011;5805;51.542;7.230;2022-12-07T06:41:21;10.77;;;8.15;;
11496;SDS011;5805;51.542;7.230;2022-12-07T06:43:47;10.68;;;8.02;;
11496;SDS011;5805;51.542;7.230;2022-12-07T06:46:13;11.57;;;8.02;;
11496;SDS011;5805;51.542;7.230;2022-12-07T06:48:39;9.70;;;7.22;;
11496;SDS011;5805;51.542;7.230;2022-12-07T06:51:05;12.07;;;7.93;;
11496;SDS011;5805;51.542;7.230;2022-12-07T06:53:32;8.27;;;7.43;;
11496;SDS011;5805;51.542;7.230;2022-12-07T06:55:58;8.65;;;7.07;;
11496;SDS011;5805;51.542;7.230;2022-12-07T06:58:24;10.77;;;7.38;;
11496;SDS011;5805;51.542;7.230;2022-12-07T07:00:49;11.88;;;8.02;;
11496;SDS011;5805;51.542;7.230;2022-12-07T07:03:15;13.85;;;7.35;;
11496;SDS011;5805;51.542;7.230;2022-12-07T07:05:41;9.23;;;6.63;;
11496;SDS011;5805;51.542;7.230;2022-12-07T07:08:07;11.63;;;7.15;;
11496;SDS011;5805;51.542;7.230;2022-12-07T07:10:34;10.48;;;6.78;;
11496;SDS011;5805;51.542;7.230;2022-12-07T07:13:00;9.15;;;7.28;;
11496;SDS011;5805;51.542;7.230;2022-12-07T07:15:26;12.35;;;7.20;;
11496;SDS011;5805;51.542;7.230;2022-12-07T07:17:52;13.20;;;7.03;;
11496;SDS011;5805;51.542;7.230;2022-12-07T07:20:18;13.48;;;7.70;;
11496;SDS011;5805;51.542;7.230;2022-12-07T07:22:43;10.10;;;7.10;;
11496;SDS011;5805;51.542;7.230;2022-12-07T07:25:09;9.23;;;7.10;;
11496;SDS011;5805;51.542;7.230;2022-12-07T07:27:36;8.60;;;6.20;;
11496;SDS011;5805;51.542;7.230;2022-12-07T07:30:02;10.27;;;7.40;;
11496;SDS011;5805;51.542;7.230;2022-12-07T07:32:29;11.63;;;6.88;;
11496;SDS011;5805;51.542;7.230;2022-12-07T07:34:54;13.85;;;6.57;;
11496;SDS011;5805;51.542;7.230;2022-12-07T07:37:20;13.43;;;7.30;;
11496;SDS011;5805;51.542;7.230;2022-12-07T07:39:46;10.82;;;6.95;;
11496;SDS011;5805;51.542;7.230;2022-12-07T07:42:11;10.90;;;6.45;;
11496;SDS011;5805;51.542;7.230;2022-12-07T07:44:38;11.57;;;6.43;;
11496;SDS011;5805;51.542;7.230;2022-12-07T07:47:04;10.65;;;6.93;;
11496;SDS011;5805;51.542;7.230;2022-12-07T07:49:30;8.25;;;6.38;;
11496;SDS011;5805;51.542;7.230;2022-12-07T07:51:55;9.13;;;6.60;;
11496;SDS011;5805;51.542;7.230;2022-12-07T07:54:21;10.35;;;6.28;;
11496;SDS011;5805;51.542;7.230;2022-12-07T07:56:47;9.52;;;6.95;;
11496;SDS011;5805;51.542;7.230;2022-12-07T07:59:12;10.55;;;7.20;;
11496;SDS011;5805;51.542;7.230;2022-12-07T08:01:40;9.20;;;6.47;;
11496;SDS011;5805;51.542;7.230;2022-12-07T08:04:06;13.45;;;7.45;;
11496;SDS011;5805;51.542;7.230;2022-12-07T08:06:31;12.50;;;7.28;;
11496;SDS011;5805;51.542;7.230;2022-12-07T08:08:57;11.43;;;6.32;;
11496;SDS011;5805;51.542;7.230;2022-12-07T08:11:23;11.57;;;7.07;;
11496;SDS011;5805;51.542;7.230;2022-12-07T08:13:48;9.05;;;6.65;;
11496;SDS011;5805;51.542;7.230;2022-12-07T08:16:14;12.07;;;6.78;;
11496;SDS011;5805;51.542;7.230;2022-12-07T08:18:42;11.25;;;6.32;;
11496;SDS011;5805;51.542;7.230;2022-12-07T08:21:09;10.82;;;5.88;;
11496;SDS011;5805;51.542;7.230;2022-12-07T08:23:37;11.35;;;5.97;;
11496;SDS011;5805;51.542;7.230;2022-12-07T08:26:04;9.50;;;5.28;;
11496;SDS011;5805;51.542;7.230;2022-12-07T08:28:31;12.75;;;5.63;;
11496;SDS011;5805;51.542;7.230;2022-12-07T08:30:58;10.00;;;6.03;;
11496;SDS011;5805;51.542;7.230;2022-12-07T08:33:24;8.52;;;4.80;;
11496;SDS011;5805;51.542;7.230;2022-12-07T08:35:51;8.10;;;5.07;;
11496;SDS011;5805;51.542;7.230;2022-12-07T08:38:17;10.40;;;5.47;;
11496;SDS011;5805;51.542;7.230;2022-12-07T08:40:42;10.50;;;5.65;;
11496;SDS011;5805;51.542;7.230;2022-12-07T08:43:08;12.50;;;5.88;;
11496;SDS011;5805;51.542;7.230;2022-12-07T08:45:34;13.13;;;5.00;;
11496;SDS011;5805;51.542;7.230;2022-12-07T08:48:01;9.63;;;5.07;;
11496;SDS011;5805;51.542;7.230;2022-12-07T08:50:31;7.15;;;4.72;;
11496;SDS011;5805;51.542;7.230;2022-12-07T08:52:59;6.68;;;5.05;;
11496;SDS011;5805;51.542;7.230;2022-12-07T08:55:25;9.82;;;5.10;;
11496;SDS011;5805;51.542;7.230;2022-12-07T08:57:52;7.28;;;4.65;;
11496;SDS011;5805;51.542;7.230;2022-12-07T09:00:18;8.00;;;4.70;;
11496;SDS011;5805;51.542;7.230;2022-12-07T09:02:45;10.23;;;5.70;;
11496;SDS011;5805;51.542;7.230;2022-12-07T09:05:11;10.23;;;4.72;;
11496;SDS011;5805;51.542;7.230;2022-12-07T09:07:37;8.40;;;4.72;;
11496;SDS011;5805;51.542;7.230;2022-12-07T09:10:05;10.55;;;4.65;;
11496;SDS011;5805;51.542;7.230;2022-12-07T09:12:31;10.18;;;4.85;;
11496;SDS011;5805;51.542;7.230;2022-12-07T09:14:57;9.65;;;4.90;;
11496;SDS011;5805;51.542;7.230;2022-12-07T09:17:23;14.30;;;4.80;;
11496;SDS011;5805;51.542;7.230;2022-12-07T09:19:48;10.52;;;4.60;;
11496;SDS011;5805;51.542;7.230;2022-12-07T09:22:14;8.63;;;4.68;;
11496;SDS011;5805;51.542;7.230;2022-12-07T09:24:40;9.93;;;4.70;;
11496;SDS011;5805;51.542;7.230;2022-12-07T09:27:07;10.38;;;4.57;;
11496;SDS011;5805;51.542;7.230;2022-12-07T09:29:32;8.70;;;4.88;;
11496;SDS011;5805;51.542;7.230;2022-12-07T09:31:58;11.52;;;4.70;;
11496;SDS011;5805;51.542;7.230;2022-12-07T09:34:24;8.95;;;3.92;;
11496;SDS011;5805;51.542;7.230;2022-12-07T09:36:49;12.68;;;4.57;;
11496;SDS011;5805;51.542;7.230;2022-12-07T09:39:15;9.20;;;4.30;;
11496;SDS011;5805;51.542;7.230;2022-12-07T09:41:41;5.78;;;4.18;;
11496;SDS011;5805;51.542;7.230;2022-12-07T09:44:11;5.88;;;3.80;;
11496;SDS011;5805;51.542;7.230;2022-12-07T09:46:39;9.85;;;4.25;;
11496;SDS011;5805;51.542;7.230;2022-12-07T09:49:08;9.80;;;4.05;;
11496;SDS011;5805;51.542;7.230;2022-12-07T09:51:36;8.00;;;4.32;;
11496;SDS011;5805;51.542;7.230;2022-12-07T09:54:02;12.38;;;4.40;;
11496;SDS011;5805;51.542;7.230;2022-12-07T09:56:28;9.55;;;3.85;;
11496;SDS011;5805;51.542;7.230;2022-12-07T09:58:58;6.55;;;3.90;;
11496;SDS011;5805;51.542;7.230;2022-12-07T10:01:27;8.85;;;3.88;;
11496;SDS011;5805;51.542;7.230;2022-12-07T10:03:55;8.45;;;4.13;;
11496;SDS011;5805;51.542;7.230;2022-12-07T10:06:34;12.43;;;4.57;;
11496;SDS011;5805;51.542;7.230;2022-12-07T10:09:00;7.97;;;3.70;;
11496;SDS011;5805;51.542;7.230;2022-12-07T10:11:25;8.82;;;3.28;;
11496;SDS011;5805;51.542;7.230;2022-12-07T10:13:51;10.27;;;3.50;;
11496;SDS011;5805;51.542;7.230;2022-12-07T10:19:20;8.38;;;3.88;;
11496;SDS011;5805;51.542;7.230;2022-12-07T10:22:01;6.47;;;3.33;;
11496;SDS011;5805;51.542;7.230;2022-12-07T10:24:29;9.90;;;3.80;;
11496;SDS011;5805;51.542;7.230;2022-12-07T10:26:55;6.72;;;3.80;;
11496;SDS011;5805;51.542;7.230;2022-12-07T10:29:22;7.95;;;3.67;;
11496;SDS011;5805;51.542;7.230;2022-12-07T10:31:56;15.18;;;4.00;;
11496;SDS011;5805;51.542;7.230;2022-12-07T10:34:25;8.18;;;4.10;;
11496;SDS011;5805;51.542;7.230;2022-12-07T10:36:52;8.25;;;3.83;;
11496;SDS011;5805;51.542;7.230;2022-12-07T10:39:31;7.93;;;3.58;;
11496;SDS011;5805;51.542;7.230;2022-12-07T10:42:09;7.45;;;4.13;;
11496;SDS011;5805;51.542;7.230;2022-12-07T10:44:41;6.88;;;3.33;;
11496;SDS011;5805;51.542;7.230;2022-12-07T10:47:17;14.52;;;4.20;;
11496;SDS011;5805;51.542;7.230;2022-12-07T10:49:55;9.70;;;4.22;;
11496;SDS011;5805;51.542;7.230;2022-12-07T10:52:50;7.05;;;3.80;;
11496;SDS011;5805;51.542;7.230;2022-12-07T10:55:39;6.15;;;4.00;;
11496;SDS011;5805;51.542;7.230;2022-12-07T10:58:18;16.13;;;4.35;;
11496;SDS011;5805;51.542;7.230;2022-12-07T11:00:54;6.60;;;3.30;;
11496;SDS011;5805;51.542;7.230;2022-12-07T11:06:20;5.70;;;3.78;;
11496;SDS011;5805;51.542;7.230;2022-12-07T11:08:59;6.30;;;4.00;;
11496;SDS011;5805;51.542;7.230;2022-12-07T11:11:33;5.35;;;3.67;;
11496;SDS011;5805;51.542;7.230;2022-12-07T11:14:03;12.20;;;3.83;;
11496;SDS011;5805;51.542;7.230;2022-12-07T11:16:40;7.60;;;3.92;;
11496;SDS011;5805;51.542;7.230;2022-12-07T11:19:19;8.63;;;3.65;;
11496;SDS011;5805;51.542;7.230;2022-12-07T11:21:57;11.63;;;4.35;;
11496;SDS011;5805;51.542;7.230;2022-12-07T11:24:27;10.70;;;3.38;;
11496;SDS011;5805;51.542;7.230;2022-12-07T11:27:04;6.32;;;3.67;;
11496;SDS011;5805;51.542;7.230;2022-12-07T11:29:42;7.47;;;3.70;;
11496;SDS011;5805;51.542;7.230;2022-12-07T11:32:20;10.43;;;3.35;;
11496;SDS011;5805;51.542;7.230;2022-12-07T11:34:55;7.00;;;3.22;;
11496;SDS011;5805;51.542;7.230;2022-12-07T11:37:30;7.55;;;2.83;;
11496;SDS011;5805;51.542;7.230;2022-12-07T11:39:59;5.50;;;2.70;;
11496;SDS011;5805;51.542;7.230;2022-12-07T11:42:29;6.53;;;2.78;;
11496;SDS011;5805;51.542;7.230;2022-12-07T11:44:59;5.13;;;2.35;;
11496;SDS011;5805;51.542;7.230;2022-12-07T11:47:30;3.88;;;2.28;;
11496;SDS011;5805;51.542;7.230;2022-12-07T11:50:10;7.05;;;2.47;;
11496;SDS011;5805;51.542;7.230;2022-12-07T11:52:49;3.95;;;2.10;;
11496;SDS011;5805;51.542;7.230;2022-12-07T11:55:22;5.80;;;2.35;;
11496;SDS011;5805;51.542;7.230;2022-12-07T11:57:52;5.55;;;2.40;;
11496;SDS011;5805;51.542;7.230;2022-12-07T12:00:23;11.30;;;2.67;;
11496;SDS011;5805;51.542;7.230;2022-12-07T12:02:49;7.22;;;2.67;;
11496;SDS011;5805;51.542;7.230;2022-12-07T12:05:21;8.35;;;2.40;;
11496;SDS011;5805;51.542;7.230;2022-12-07T12:07:48;5.68;;;2.15;;
11496;SDS011;5805;51.542;7.230;2022-12-07T12:10:22;6.10;;;2.13;;
11496;SDS011;5805;51.542;7.230;2022-12-07T12:12:59;6.70;;;2.03;;
11496;SDS011;5805;51.542;7.230;2022-12-07T12:15:42;6.15;;;2.05;;
11496;SDS011;5805;51.542;7.230;2022-12-07T12:18:26;5.25;;;2.20;;
11496;SDS011;5805;51.542;7.230;2022-12-07T12:21:03;8.65;;;2.28;;
11496;SDS011;5805;51.542;7.230;2022-12-07T12:23:35;5.32;;;1.90;;
11496;SDS011;5805;51.542;7.230;2022-12-07T12:26:05;2.85;;;1.52;;
11496;SDS011;5805;51.542;7.230;2022-12-07T12:28:39;7.22;;;1.80;;
11496;SDS011;5805;51.542;7.230;2022-12-07T12:31:09;9.10;;;1.98;;
11496;SDS011;5805;51.542;7.230;2022-12-07T12:33:37;5.85;;;1.98;;
11496;SDS011;5805;51.542;7.230;2022-12-07T12:36:19;5.70;;;1.95;;
11496;SDS011;5805;51.542;7.230;2022-12-07T12:38:48;4.88;;;1.95;;
11496;SDS011;5805;51.542;7.230;2022-12-07T12:47:04;9.75;;;1.67;;
11496;SDS011;5805;51.542;7.230;2022-12-07T12:50:15;4.32;;;1.58;;
11496;SDS011;5805;51.542;7.230;2022-12-07T12:58:49;7.47;;;1.77;;
11496;SDS011;5805;51.542;7.230;2022-12-07T13:01:40;5.07;;;1.60;;
11496;SDS011;5805;51.542;7.230;2022-12-07T13:07:04;7.85;;;1.65;;
11496;SDS011;5805;51.542;7.230;2022-12-07T13:09:35;9.38;;;1.83;;
11496;SDS011;5805;51.542;7.230;2022-12-07T13:12:02;3.75;;;1.58;;
11496;SDS011;5805;51.542;7.230;2022-12-07T13:14:40;3.92;;;1.83;;
11496;SDS011;5805;51.542;7.230;2022-12-07T13:20:42;3.40;;;1.65;;
11496;SDS011;5805;51.542;7.230;2022-12-07T13:23:13;4.45;;;1.50;;
11496;SDS011;5805;51.542;7.230;2022-12-07T13:25:46;5.95;;;1.80;;
11496;SDS011;5805;51.542;7.230;2022-12-07T13:28:18;5.60;;;1.45;;
11496;SDS011;5805;51.542;7.230;2022-12-07T13:30:48;5.90;;;1.80;;
11496;SDS011;5805;51.542;7.230;2022-12-07T13:33:23;9.02;;;1.95;;
11496;SDS011;5805;51.542;7.230;2022-12-07T13:35:53;5.15;;;2.50;;
11496;SDS011;5805;51.542;7.230;2022-12-07T13:38:22;7.07;;;2.40;;
11496;SDS011;5805;51.542;7.230;2022-12-07T13:41:01;11.20;;;2.25;;
11496;SDS011;5805;51.542;7.230;2022-12-07T13:43:29;5.80;;;2.13;;
11496;SDS011;5805;51.542;7.230;2022-12-07T13:45:55;6.57;;;2.10;;
11496;SDS011;5805;51.542;7.230;2022-12-07T13:48:24;4.20;;;1.90;;
11496;SDS011;5805;51.542;7.230;2022-12-07T13:50:56;4.05;;;2.00;;
11496;SDS011;5805;51.542;7.230;2022-12-07T13:53:22;6.80;;;2.05;;
11496;SDS011;5805;51.542;7.230;2022-12-07T13:55:48;4.25;;;1.98;;
11496;SDS011;5805;51.542;7.230;2022-12-07T13:58:16;4.18;;;1.65;;
11496;SDS011;5805;51.542;7.230;2022-12-07T14:00:42;8.85;;;1.75;;
11496;SDS011;5805;51.542;7.230;2022-12-07T14:06:06;1.10;;;1.00;;
11496;SDS011;5805;51.542;7.230;2022-12-07T14:08:38;2.22;;;0.98;;
11496;SDS011;5805;51.542;7.230;2022-12-07T14:11:04;5.68;;;1.40;;
11496;SDS011;5805;51.542;7.230;2022-12-07T14:13:33;4.47;;;1.63;;
11496;SDS011;5805;51.542;7.230;2022-12-07T14:16:00;2.13;;;1.08;;
11496;SDS011;5805;51.542;7.230;2022-12-07T14:18:27;3.28;;;1.13;;
11496;SDS011;5805;51.542;7.230;2022-12-07T14:21:02;4.72;;;1.40;;
11496;SDS011;5805;51.542;7.230;2022-12-07T14:23:29;2.65;;;1.40;;
11496;SDS011;5805;51.542;7.230;2022-12-07T14:26:04;2.22;;;1.10;;
11496;SDS011;5805;51.542;7.230;2022-12-07T14:28:34;4.20;;;1.83;;
11496;SDS011;5805;51.542;7.230;2022-12-07T14:31:02;2.97;;;1.60;;
11496;SDS011;5805;51.542;7.230;2022-12-07T14:33:28;4.97;;;1.65;;
11496;SDS011;5805;51.542;7.230;2022-12-07T14:35:54;3.67;;;1.77;;
11496;SDS011;5805;51.542;7.230;2022-12-07T14:38:20;4.57;;;2.08;;
11496;SDS011;5805;51.542;7.230;2022-12-07T14:40:46;4.57;;;1.95;;
11496;SDS011;5805;51.542;7.230;2022-12-07T14:43:12;4.07;;;2.00;;
11496;SDS011;5805;51.542;7.230;2022-12-07T14:45:42;3.58;;;1.63;;
11496;SDS011;5805;51.542;7.230;2022-12-07T14:48:07;8.35;;;2.50;;
11496;SDS011;5805;51.542;7.230;2022-12-07T14:50:37;4.45;;;2.22;;
11496;SDS011;5805;51.542;7.230;2022-12-07T14:53:06;5.43;;;2.50;;
11496;SDS011;5805;51.542;7.230;2022-12-07T14:55:37;8.50;;;2.40;;
11496;SDS011;5805;51.542;7.230;2022-12-07T14:58:05;5.47;;;2.53;;
11496;SDS011;5805;51.542;7.230;2022-12-07T15:00:33;6.25;;;3.15;;
11496;SDS011;5805;51.542;7.230;2022-12-07T15:03:00;4.80;;;2.33;;
11496;SDS011;5805;51.542;7.230;2022-12-07T15:05:26;6.43;;;2.30;;
11496;SDS011;5805;51.542;7.230;2022-12-07T15:07:51;5.13;;;2.47;;
11496;SDS011;5805;51.542;7.230;2022-12-07T15:10:18;6.30;;;2.10;;
11496;SDS011;5805;51.542;7.230;2022-12-07T15:12:45;6.47;;;2.08;;
11496;SDS011;5805;51.542;7.230;2022-12-07T15:15:11;5.70;;;2.60;;
11496;SDS011;5805;51.542;7.230;2022-12-07T15:17:37;6.20;;;2.60;;
11496;SDS011;5805;51.542;7.230;2022-12-07T15:20:04;5.93;;;2.33;;
11496;SDS011;5805;51.542;7.230;2022-12-07T15:22:34;7.93;;;2.55;;
11496;SDS011;5805;51.542;7.230;2022-12-07T15:24:59;9.30;;;3.40;;
11496;SDS011;5805;51.542;7.230;2022-12-07T15:27:25;3.83;;;2.45;;